YXCM weather

Cooma Hospital Helipad
Cooma, New South Wales, Australia

Public forecast

Using degrees Celsius for public forecast. Weather courtesy of forecast.io.

Closest aviation weather report (METAR) to Cooma Hospital Helipad

Closest report is Cooma Snowy Mountains Airport, 8.3 nm (15.4 km) WSW. Retrieved 2020/02/26 03:51 UTC (17 minutes ago):

YCOM 260351Z AUTO 28015G29KT 9999 // NCD 25/01 Q1006

Closest aviation forecast (TAF) to Cooma Hospital Helipad

Closest forecast is Canberra International Airport, 56.2 nm (104.2 km) N. Retrieved 2020-02-26 00:35 UTC (4 hours ago):

TAF YSCB 252333Z 2600/2700 30018G28KT 9999 FEW025 SCT050 FM260300 27018G28KT CAVOK FM260600 28014KT CAVOK FM260900 30010KT CAVOK FM261200 09006KT 9999 SCT015 BKN030